Red Owl, South Dakota
Current Conditions -  °F | °C
As of 3:58 PM on Thursday 27 Nov 2014 (Local Time) from KRCA Reporting Station
Few Clouds Few Clouds  
Wind Chill:   Ceiling: Unl
Heat Index:   Visibility: 10mi
Dew Point: -2°   Wind: 1mph
Humidity: 75%   Direction: 200°SSW
Pressure: 29.87"   Gusts: NA
Location:  44.7°N, 102.55°W
Report Text: KRCA 272258Z AUTO 20001KT 10SM FEW095 02/M02 A2987 RMK AO2 SLP152 T00221018 $
Loading
Personal Weather Stations






























Interactive Weather Map New forecast layout! Learn more

10-Day Weather Forecast

Advertisements
Track Severe Weather on mobile